createdAt,value
2022-10-29T00:00:44.904Z,465.45
2022-10-29T00:03:16.348Z,470.65
2022-10-29T00:05:42.664Z,457.58
2022-10-29T00:08:09.069Z,460.50
2022-10-29T00:10:35.457Z,443.70
2022-10-29T00:13:01.826Z,447.80
2022-10-29T00:15:28.067Z,446.77
2022-10-29T00:17:54.677Z,449.98
2022-10-29T00:20:21.448Z,434.77
2022-10-29T00:22:47.776Z,431.80
2022-10-29T00:25:14.126Z,430.90
2022-10-29T00:27:40.506Z,427.30
2022-10-29T00:30:06.836Z,426.92
2022-10-29T00:32:33.177Z,418.35
2022-10-29T00:34:59.764Z,416.00
2022-10-29T00:37:26.059Z,412.17
2022-10-29T00:39:53.107Z,415.65
2022-10-29T00:42:19.597Z,411.63
2022-10-29T00:44:45.863Z,405.45
2022-10-29T00:47:12.133Z,398.85
2022-10-29T00:49:38.457Z,395.25
2022-10-29T00:52:05.430Z,397.02
2022-10-29T00:54:31.695Z,395.15
2022-10-29T00:56:58.015Z,394.58
2022-10-29T00:59:24.352Z,387.17
2022-10-29T01:01:50.714Z,392.23
2022-10-29T01:04:17.327Z,389.45
2022-10-29T01:06:43.866Z,373.13
2022-10-29T01:09:10.196Z,378.77
2022-10-29T01:11:36.654Z,369.65
2022-10-29T01:14:03.799Z,375.27
2022-10-29T01:16:30.140Z,371.55
2022-10-29T01:18:56.575Z,361.33
2022-10-29T01:21:22.982Z,365.13
2022-10-29T01:23:49.350Z,362.02
2022-10-29T01:26:15.698Z,358.65
2022-10-29T01:28:42.081Z,353.77
2022-10-29T01:31:08.444Z,348.80
2022-10-29T01:33:34.712Z,347.55
2022-10-29T01:36:01.199Z,338.48
2022-10-29T01:38:27.660Z,336.73
2022-10-29T01:40:53.962Z,338.40
2022-10-29T01:45:51.851Z,329.70
2022-10-29T01:48:18.079Z,325.55
2022-10-29T01:50:44.446Z,322.50
2022-10-29T01:53:10.717Z,320.20
2022-10-29T01:55:37.009Z,311.95
2022-10-29T01:58:03.291Z,318.42
2022-10-29T02:00:29.995Z,312.60
2022-10-29T02:02:56.925Z,309.42
2022-10-29T02:05:23.543Z,310.42
2022-10-29T02:07:49.903Z,306.65
2022-10-29T02:10:16.374Z,306.90
2022-10-29T02:12:42.839Z,298.58
2022-10-29T02:15:09.362Z,305.38
2022-10-29T02:17:35.654Z,290.73
2022-10-29T02:20:02.004Z,288.52
2022-10-29T02:22:28.816Z,292.23
2022-10-29T02:24:55.926Z,283.95
2022-10-29T02:27:22.342Z,288.20
2022-10-29T02:29:48.877Z,283.35
2022-10-29T02:32:15.273Z,279.60
2022-10-29T02:34:41.546Z,277.90
2022-10-29T02:37:07.851Z,274.85
2022-10-29T02:39:34.138Z,278.45
2022-10-29T02:42:00.440Z,275.52
2022-10-29T02:44:26.783Z,269.58
2022-10-29T02:46:53.204Z,264.92
2022-10-29T02:49:19.458Z,264.05
2022-10-29T02:51:45.962Z,255.90
2022-10-29T02:54:12.383Z,255.02
2022-10-29T02:56:38.674Z,255.95
2022-10-29T02:59:07.710Z,254.57
2022-10-29T03:01:37.553Z,251.88
2022-10-29T03:04:04.086Z,245.05
2022-10-29T03:06:30.367Z,240.15
2022-10-29T03:08:56.768Z,249.63
2022-10-29T03:11:23.046Z,241.75
2022-10-29T03:13:49.559Z,241.20
2022-10-29T03:16:15.999Z,240.23
2022-10-29T03:18:42.319Z,232.80
2022-10-29T03:21:08.576Z,236.40
2022-10-29T03:23:35.099Z,232.95
2022-10-29T03:26:01.444Z,230.98
2022-10-29T03:28:27.763Z,224.40
2022-10-29T03:30:54.133Z,224.07
2022-10-29T03:33:20.939Z,221.80
2022-10-29T03:35:47.480Z,218.63
2022-10-29T03:38:13.848Z,222.20
2022-10-29T03:40:40.244Z,215.40
2022-10-29T03:43:06.478Z,216.90
2022-10-29T03:45:32.735Z,212.77
2022-10-29T03:47:59.210Z,209.52
2022-10-29T03:50:25.767Z,212.40
2022-10-29T03:52:52.128Z,203.75
2022-10-29T03:55:18.536Z,206.38
2022-10-29T03:57:44.950Z,207.07
2022-10-29T04:00:11.283Z,203.40
2022-10-29T04:02:38.050Z,200.27
2022-10-29T04:05:04.497Z,199.85
2022-10-29T04:07:30.809Z,199.65
2022-10-29T04:09:57.285Z,195.90
2022-10-29T04:12:23.706Z,195.35
2022-10-29T04:17:21.314Z,189.68
2022-10-29T04:19:47.847Z,183.65
2022-10-29T04:28:41.938Z,178.02
2022-10-29T04:30:33.392Z,173.55
2022-10-29T04:32:59.993Z,175.50
2022-10-29T04:35:26.675Z,172.07
2022-10-29T04:37:52.940Z,171.25
2022-10-29T04:40:19.244Z,169.30
2022-10-29T04:42:45.850Z,168.23
2022-10-29T04:45:12.156Z,167.27
2022-10-29T04:47:38.439Z,167.57
2022-10-29T04:50:05.751Z,157.80
2022-10-29T04:52:32.307Z,161.93
2022-10-29T04:54:59.464Z,162.25
2022-10-29T04:57:25.769Z,157.80
2022-10-29T04:59:52.180Z,156.15
2022-10-29T05:02:18.456Z,156.82
2022-10-29T05:04:44.918Z,154.80
2022-10-29T05:07:11.231Z,154.52
2022-10-29T05:09:37.522Z,151.57
2022-10-29T05:12:03.774Z,153.07
2022-10-29T05:14:30.142Z,149.85
2022-10-29T05:16:56.434Z,146.20
2022-10-29T05:19:22.893Z,147.35
2022-10-29T05:21:49.350Z,144.57
2022-10-29T05:24:15.648Z,140.48
2022-10-29T05:26:42.260Z,138.63
2022-10-29T05:29:08.718Z,138.00
2022-10-29T05:31:35.094Z,137.20
2022-10-29T05:34:01.492Z,135.95
2022-10-29T05:36:28.159Z,136.70
2022-10-29T05:38:54.476Z,131.85
2022-10-29T05:41:20.751Z,133.98
2022-10-29T05:43:47.280Z,132.13
2022-10-29T05:46:13.628Z,131.88
2022-10-29T05:48:39.880Z,131.15
2022-10-29T05:51:06.333Z,130.43
2022-10-29T05:53:32.832Z,126.82
2022-10-29T05:55:59.313Z,129.18
2022-10-29T05:58:25.662Z,125.97
2022-10-29T06:00:51.978Z,124.88
2022-10-29T06:03:18.326Z,123.65
2022-10-29T06:05:44.691Z,120.75
2022-10-29T06:08:11.031Z,119.35
2022-10-29T06:10:37.571Z,120.07
2022-10-29T06:13:04.415Z,117.88
2022-10-29T06:15:30.987Z,116.97
2022-10-29T06:17:57.770Z,117.25
2022-10-29T06:20:24.411Z,117.22
2022-10-29T06:22:50.704Z,114.65
2022-10-29T06:25:17.040Z,113.43
2022-10-29T06:27:43.448Z,111.75
2022-10-29T06:30:09.743Z,112.05
2022-10-29T06:32:36.417Z,112.18
2022-10-29T06:35:02.740Z,109.05
2022-10-29T06:37:29.004Z,108.47
2022-10-29T06:39:56.995Z,108.22
2022-10-29T06:42:23.577Z,106.50
2022-10-29T06:44:49.873Z,103.22
2022-10-29T06:47:16.204Z,106.47
2022-10-29T06:49:42.545Z,100.65
2022-10-29T06:52:08.964Z,103.53
2022-10-29T06:54:35.468Z,104.18
2022-10-29T06:57:01.778Z,100.32
2022-10-29T06:59:28.028Z,99.32
2022-10-29T07:01:55.226Z,99.20
2022-10-29T07:04:21.595Z,98.43
2022-10-29T07:06:47.909Z,97.55
2022-10-29T07:09:14.235Z,98.70
2022-10-29T07:11:40.570Z,94.57
2022-10-29T07:14:06.918Z,93.03
2022-10-29T07:16:33.524Z,95.88
2022-10-29T07:18:59.791Z,90.53
2022-10-29T07:21:26.090Z,90.07
2022-10-29T07:23:53.585Z,91.75
2022-10-29T07:26:20.284Z,86.70
2022-10-29T07:28:46.567Z,91.30
2022-10-29T07:31:12.900Z,91.68
2022-10-29T07:33:39.130Z,91.85
2022-10-29T07:36:05.354Z,86.53
2022-10-29T07:38:31.875Z,86.22
2022-10-29T07:40:58.313Z,85.68
2022-10-29T07:43:24.673Z,84.53
2022-10-29T07:45:50.941Z,86.70
2022-10-29T07:48:17.191Z,83.25
2022-10-29T07:50:43.482Z,80.85
2022-10-29T07:53:09.744Z,80.13
2022-10-29T07:55:36.039Z,82.47
2022-10-29T07:58:02.434Z,79.70
2022-10-29T08:00:28.969Z,80.57
2022-10-29T08:02:55.473Z,79.05
2022-10-29T08:05:21.900Z,78.70
2022-10-29T08:07:48.242Z,76.50
2022-10-29T08:10:15.367Z,78.32
2022-10-29T08:12:41.679Z,76.15
2022-10-29T08:15:07.940Z,75.35
2022-10-29T08:17:34.278Z,76.63
2022-10-29T08:20:00.622Z,74.57
2022-10-29T08:22:27.074Z,71.95
2022-10-29T08:24:53.833Z,68.97
2022-10-29T08:27:20.087Z,84.65
2022-10-29T08:29:47.214Z,88.22
2022-10-29T08:32:13.495Z,103.47
2022-10-29T08:34:40.541Z,87.18
2022-10-29T08:37:07.237Z,91.43
2022-10-29T08:39:34.334Z,71.35
2022-10-29T08:42:00.687Z,55.30
2022-10-29T08:44:27.584Z,63.22
2022-10-29T08:46:53.866Z,43.83
2022-10-29T08:49:20.229Z,41.55
2022-10-29T08:51:46.495Z,37.72
2022-10-29T08:59:35.427Z,205.60
2022-10-29T09:02:01.759Z,178.93
2022-10-29T09:04:28.253Z,138.18
2022-10-29T09:06:54.524Z,64.22
2022-10-29T09:09:21.228Z,58.35
2022-10-29T09:11:47.590Z,45.00
2022-10-29T09:14:13.887Z,30.27
2022-10-29T09:19:13.332Z,78.28
2022-10-29T09:21:39.626Z,108.50
2022-10-29T09:24:05.894Z,70.05
2022-10-29T09:26:32.270Z,64.43
2022-10-29T09:28:58.557Z,59.90
2022-10-29T09:31:24.906Z,53.13
2022-10-29T09:33:51.305Z,43.53
2022-10-29T09:36:17.612Z,43.92
2022-10-29T09:38:43.904Z,39.58
2022-10-29T09:41:10.361Z,40.33
2022-10-29T09:43:36.611Z,42.75
2022-10-29T09:46:02.894Z,38.40
2022-10-29T09:48:29.235Z,32.58
2022-10-29T09:50:55.638Z,35.47
2022-10-29T09:53:21.971Z,34.92
2022-10-29T09:55:48.487Z,32.35
2022-10-29T09:58:14.823Z,34.03
2022-10-29T10:00:41.161Z,91.60
2022-10-29T10:03:07.653Z,199.27
2022-10-29T10:05:34.164Z,202.23
2022-10-29T10:08:02.126Z,166.55
2022-10-29T10:10:28.655Z,152.77
2022-10-29T10:15:45.322Z,133.82
2022-10-29T10:18:11.726Z,123.93
2022-10-29T10:20:38.163Z,128.45
2022-10-29T10:23:04.424Z,119.93
2022-10-29T10:25:30.752Z,223.57
2022-10-29T10:27:57.393Z,359.63
2022-10-29T10:30:24.051Z,318.23
2022-10-29T10:32:50.415Z,251.25
2022-10-29T10:35:16.717Z,211.10
2022-10-29T10:40:34.008Z,154.25
2022-10-29T10:43:03.089Z,131.88
2022-10-29T10:45:33.133Z,121.68
2022-10-29T10:48:00.323Z,103.63
2022-10-29T10:50:27.011Z,314.73
2022-10-29T10:52:53.470Z,329.73
2022-10-29T10:55:19.925Z,299.52
2022-10-29T10:57:46.681Z,238.63
2022-10-29T11:00:12.919Z,198.23
2022-10-29T11:02:39.275Z,169.23
2022-10-29T11:05:07.964Z,143.45
2022-10-29T11:07:34.568Z,130.45
2022-10-29T11:10:00.919Z,116.32
2022-10-29T11:12:27.589Z,110.28
2022-10-29T11:14:53.974Z,95.65
2022-10-29T11:17:20.327Z,93.10
2022-10-29T11:19:46.633Z,87.28
2022-10-29T11:24:46.651Z,235.98
2022-10-29T11:27:13.034Z,317.98
2022-10-29T11:29:39.416Z,301.85
2022-10-29T11:32:05.705Z,235.55
2022-10-29T11:34:32.513Z,209.30
2022-10-29T11:36:58.951Z,187.18
2022-10-29T11:39:25.288Z,183.60
2022-10-29T11:41:51.662Z,298.20
2022-10-29T11:44:18.077Z,400.30
2022-10-29T11:46:44.518Z,405.63
2022-10-29T11:49:10.985Z,328.70
2022-10-29T11:51:37.364Z,264.95
2022-10-29T11:54:03.923Z,244.20
2022-10-29T11:56:30.273Z,222.52
2022-10-29T11:58:56.673Z,207.43
2022-10-29T12:01:23.069Z,264.30
2022-10-29T12:03:49.672Z,487.17
2022-10-29T12:08:51.931Z,386.95
2022-10-29T12:11:19.606Z,334.83
2022-10-29T12:13:46.235Z,268.50
2022-10-29T12:16:12.535Z,254.10
2022-10-29T12:18:40.495Z,358.63
2022-10-29T12:21:06.781Z,434.63
2022-10-29T12:23:33.119Z,381.27
2022-10-29T12:25:59.455Z,358.77
2022-10-29T12:28:25.770Z,325.33
2022-10-29T12:30:52.062Z,318.92
2022-10-29T12:33:18.341Z,310.33
2022-10-29T12:35:44.789Z,305.08
2022-10-29T12:38:11.122Z,293.65
2022-10-29T12:40:37.351Z,287.88
2022-10-29T12:43:03.917Z,284.98
2022-10-29T12:45:30.256Z,278.63
2022-10-29T12:47:56.772Z,272.48
2022-10-29T12:50:23.263Z,270.42
2022-10-29T12:52:49.660Z,264.23
2022-10-29T12:55:15.920Z,260.48
2022-10-29T12:57:42.206Z,256.73
2022-10-29T13:00:08.870Z,252.77
2022-10-29T13:02:35.225Z,247.60
2022-10-29T13:05:01.652Z,247.00
2022-10-29T13:07:28.093Z,244.82
2022-10-29T13:09:54.460Z,245.32
2022-10-29T13:12:20.760Z,240.93
2022-10-29T13:14:47.107Z,234.85
2022-10-29T13:17:13.410Z,234.55
2022-10-29T13:19:40.001Z,233.90
2022-10-29T13:22:06.344Z,228.05
2022-10-29T13:24:32.724Z,232.95
2022-10-29T13:26:59.004Z,228.30
2022-10-29T13:29:25.356Z,228.18
2022-10-29T13:31:51.872Z,225.73
2022-10-29T13:34:18.201Z,218.73
2022-10-29T13:36:44.550Z,223.27
2022-10-29T13:39:11.107Z,214.45
2022-10-29T13:41:37.487Z,210.82
2022-10-29T13:44:03.809Z,206.57
2022-10-29T13:46:30.071Z,206.90
2022-10-29T13:48:56.384Z,200.55
2022-10-29T13:51:22.788Z,202.13
2022-10-29T13:53:49.177Z,203.52
2022-10-29T13:56:15.770Z,197.20
2022-10-29T13:58:42.077Z,190.98
2022-10-29T14:01:08.438Z,198.50
2022-10-29T14:03:34.856Z,196.40
2022-10-29T14:06:01.202Z,192.77
2022-10-29T14:08:27.511Z,188.20
2022-10-29T14:10:54.050Z,195.77
2022-10-29T14:13:23.686Z,190.77
2022-10-29T14:15:51.375Z,188.63
2022-10-29T14:18:17.741Z,185.00
2022-10-29T14:20:44.084Z,182.68
2022-10-29T14:23:10.432Z,185.02
2022-10-29T14:25:38.086Z,184.27
2022-10-29T14:28:06.444Z,184.07
2022-10-29T14:30:32.896Z,181.85
2022-10-29T14:32:59.392Z,175.32
2022-10-29T14:35:25.946Z,174.77
2022-10-29T14:37:52.222Z,178.57
2022-10-29T14:40:18.981Z,178.85
2022-10-29T14:42:45.256Z,174.43
2022-10-29T14:45:11.673Z,175.07
2022-10-29T14:47:38.107Z,179.30
2022-10-29T14:50:04.421Z,174.07
2022-10-29T14:52:30.867Z,171.75
2022-10-29T14:54:57.252Z,171.63
2022-10-29T14:57:23.714Z,174.23
2022-10-29T14:59:50.093Z,163.63
2022-10-29T15:05:07.234Z,166.93
2022-10-29T15:07:34.510Z,164.00
2022-10-29T15:10:01.935Z,162.90
2022-10-29T15:12:28.323Z,165.50
2022-10-29T15:14:54.708Z,159.20
2022-10-29T15:17:21.035Z,161.15
2022-10-29T15:19:47.374Z,159.15
2022-10-29T15:22:13.852Z,160.77
2022-10-29T15:24:40.163Z,157.52
2022-10-29T15:27:06.660Z,157.07
2022-10-29T15:29:36.213Z,156.95
2022-10-29T15:32:04.914Z,153.38
2022-10-29T15:34:31.294Z,153.13
2022-10-29T15:36:57.940Z,156.35
2022-10-29T15:39:24.204Z,154.60
2022-10-29T15:41:50.569Z,152.60
2022-10-29T15:44:16.983Z,152.48
2022-10-29T15:46:43.287Z,150.90
2022-10-29T15:49:09.610Z,149.10
2022-10-29T15:51:36.010Z,148.82
2022-10-29T15:54:02.344Z,148.00
2022-10-29T15:56:28.589Z,148.07
2022-10-29T15:58:54.951Z,148.82
2022-10-29T16:01:22.086Z,148.88
2022-10-29T16:03:48.736Z,144.50
2022-10-29T16:06:15.388Z,147.27
2022-10-29T16:08:41.670Z,147.02
2022-10-29T16:11:07.958Z,143.70
2022-10-29T16:13:34.752Z,142.45
2022-10-29T16:16:01.048Z,140.75
2022-10-29T16:18:27.847Z,143.50
2022-10-29T16:20:54.114Z,139.23
2022-10-29T16:23:20.450Z,139.82
2022-10-29T16:25:46.836Z,140.45
2022-10-29T16:28:13.130Z,137.93
2022-10-29T16:33:10.797Z,132.82
2022-10-29T16:35:37.070Z,135.45
2022-10-29T16:38:03.512Z,132.27
2022-10-29T16:40:29.964Z,133.05
2022-10-29T16:42:57.072Z,132.70
2022-10-29T16:45:23.719Z,132.55
2022-10-29T16:47:49.990Z,133.82
2022-10-29T16:50:16.277Z,130.27
2022-10-29T16:52:42.599Z,129.43
2022-10-29T16:55:08.911Z,128.30
2022-10-29T16:57:35.191Z,127.15
2022-10-29T17:00:01.613Z,125.22
2022-10-29T17:02:27.973Z,126.32
2022-10-29T17:04:54.417Z,124.63
2022-10-29T17:07:20.743Z,126.75
2022-10-29T17:09:47.094Z,122.32
2022-10-29T17:12:13.382Z,124.32
2022-10-29T17:14:39.619Z,120.55
2022-10-29T17:17:05.887Z,121.32
2022-10-29T17:19:32.187Z,119.40
2022-10-29T17:21:58.543Z,116.45
2022-10-29T17:24:24.807Z,119.20
2022-10-29T17:26:51.396Z,117.50
2022-10-29T17:29:17.747Z,118.35
2022-10-29T17:31:44.081Z,119.22
2022-10-29T17:34:10.519Z,113.55
2022-10-29T17:36:36.830Z,114.35
2022-10-29T17:39:03.497Z,113.70
2022-10-29T17:41:29.942Z,111.30
2022-10-29T17:43:56.599Z,113.65
2022-10-29T17:46:23.166Z,112.03
2022-10-29T17:48:50.032Z,114.38
2022-10-29T17:51:16.335Z,110.10
2022-10-29T17:53:42.655Z,110.00
2022-10-29T17:56:08.967Z,108.32
2022-10-29T17:58:35.248Z,106.95
2022-10-29T18:01:01.829Z,106.35
2022-10-29T18:03:28.247Z,106.25
2022-10-29T18:05:54.492Z,105.32
2022-10-29T18:08:20.817Z,104.68
2022-10-29T18:10:47.120Z,105.75
2022-10-29T18:13:13.422Z,104.38
2022-10-29T18:15:39.856Z,103.95
2022-10-29T18:18:06.385Z,101.82
2022-10-29T18:20:32.699Z,100.72
2022-10-29T18:22:59.359Z,101.43
2022-10-29T18:25:26.040Z,102.70
2022-10-29T18:27:52.318Z,98.18
2022-10-29T18:30:18.728Z,100.88
2022-10-29T18:32:45.478Z,97.90
2022-10-29T18:35:11.784Z,98.25
2022-10-29T18:37:38.174Z,93.95
2022-10-29T18:40:04.421Z,96.05
2022-10-29T18:42:30.757Z,94.03
2022-10-29T18:44:57.132Z,92.95
2022-10-29T18:47:23.658Z,95.32
2022-10-29T18:49:50.535Z,93.63
2022-10-29T18:52:16.805Z,89.13
2022-10-29T18:54:43.146Z,89.20
2022-10-29T18:57:09.522Z,90.18
2022-10-29T18:59:35.855Z,89.35
2022-10-29T19:02:02.256Z,90.50
2022-10-29T19:04:28.759Z,91.25
2022-10-29T19:06:54.998Z,88.85
2022-10-29T19:09:21.281Z,85.63
2022-10-29T19:11:47.510Z,86.53
2022-10-29T19:14:14.058Z,86.78
2022-10-29T19:16:40.967Z,85.55
2022-10-29T19:19:07.766Z,84.40
2022-10-29T19:21:34.520Z,84.30
2022-10-29T19:24:00.847Z,83.85
2022-10-29T19:26:27.301Z,83.68
2022-10-29T19:28:53.937Z,81.93
2022-10-29T19:31:20.384Z,83.45
2022-10-29T19:33:46.683Z,83.80
2022-10-29T19:36:12.965Z,80.93
2022-10-29T19:38:39.305Z,79.93
2022-10-29T19:41:05.696Z,80.32
2022-10-29T19:43:32.366Z,79.47
2022-10-29T19:45:58.816Z,78.97
2022-10-29T19:48:25.110Z,80.65
2022-10-29T19:50:51.530Z,78.70
2022-10-29T19:53:17.803Z,78.72
2022-10-29T19:55:44.148Z,78.32
2022-10-29T19:58:10.545Z,77.32
2022-10-29T20:00:36.823Z,76.60
2022-10-29T20:03:03.166Z,75.32
2022-10-29T20:05:29.481Z,74.78
2022-10-29T20:07:56.056Z,73.97
2022-10-29T20:10:22.640Z,74.25
2022-10-29T20:12:48.923Z,74.50
2022-10-29T20:15:15.314Z,72.00
2022-10-29T20:17:41.643Z,72.38
2022-10-29T20:20:12.756Z,71.03
2022-10-29T20:22:42.403Z,71.35
2022-10-29T20:25:08.684Z,70.35
2022-10-29T20:27:35.075Z,70.10
2022-10-29T20:30:01.648Z,71.80
2022-10-29T20:32:28.005Z,69.53
2022-10-29T20:34:54.302Z,70.53
2022-10-29T20:37:21.654Z,67.18
2022-10-29T20:39:48.171Z,68.82
2022-10-29T20:42:14.506Z,67.80
2022-10-29T20:44:40.896Z,69.07
2022-10-29T20:47:07.259Z,69.07
2022-10-29T20:49:33.529Z,64.10
2022-10-29T20:52:00.115Z,63.30
2022-10-29T20:54:26.884Z,65.18
2022-10-29T20:56:53.600Z,64.32
2022-10-29T20:59:20.008Z,67.40
2022-10-29T21:01:46.414Z,65.63
2022-10-29T21:04:12.788Z,64.90
2022-10-29T21:06:39.059Z,62.22
2022-10-29T21:09:05.440Z,64.78
2022-10-29T21:11:31.828Z,61.45
2022-10-29T21:13:58.151Z,62.83
2022-10-29T21:16:24.437Z,62.00
2022-10-29T21:18:50.702Z,60.20
2022-10-29T21:21:20.350Z,60.95
2022-10-29T21:23:47.026Z,60.05
2022-10-29T21:26:13.600Z,59.85
2022-10-29T21:28:40.126Z,61.08
2022-10-29T21:31:06.394Z,59.38
2022-10-29T21:33:32.952Z,58.25
2022-10-29T21:35:59.327Z,59.75
2022-10-29T21:38:25.691Z,59.75
2022-10-29T21:40:51.923Z,57.78
2022-10-29T21:43:18.240Z,56.78
2022-10-29T21:45:44.528Z,56.92
2022-10-29T21:48:10.812Z,56.08
2022-10-29T21:50:37.156Z,57.78
2022-10-29T21:53:03.488Z,53.67
2022-10-29T21:55:29.903Z,56.17
2022-10-29T21:57:56.445Z,55.47
2022-10-29T22:00:22.910Z,54.65
2022-10-29T22:02:49.527Z,54.33
2022-10-29T22:05:15.930Z,54.17
2022-10-29T22:07:42.364Z,52.15
2022-10-29T22:10:08.622Z,53.20
2022-10-29T22:12:35.054Z,52.80
2022-10-29T22:15:01.474Z,52.88
2022-10-29T22:17:27.868Z,52.78
2022-10-29T22:19:54.335Z,53.35
2022-10-29T22:22:20.824Z,50.92
2022-10-29T22:24:47.152Z,50.08
2022-10-29T22:27:13.504Z,52.40
2022-10-29T22:29:39.811Z,51.75
2022-10-29T22:32:06.060Z,50.50
2022-10-29T22:34:32.711Z,49.85
2022-10-29T22:36:59.087Z,49.38
2022-10-29T22:39:25.550Z,48.65
2022-10-29T22:41:52.033Z,48.97
2022-10-29T22:44:18.682Z,48.33
2022-10-29T22:46:45.036Z,48.03
2022-10-29T22:49:11.424Z,47.45
2022-10-29T22:51:37.879Z,50.33
2022-10-29T22:54:04.160Z,46.38
2022-10-29T22:56:30.446Z,47.67
2022-10-29T22:58:56.760Z,45.83
2022-10-29T23:01:23.123Z,47.97
2022-10-29T23:03:49.552Z,46.38
2022-10-29T23:06:15.823Z,46.17
2022-10-29T23:08:44.216Z,46.47
2022-10-29T23:11:10.919Z,45.70
2022-10-29T23:13:37.333Z,46.42
2022-10-29T23:16:03.776Z,44.72
2022-10-29T23:18:30.128Z,43.72
2022-10-29T23:20:56.558Z,42.83
2022-10-29T23:23:22.833Z,43.58
2022-10-29T23:25:49.123Z,44.70
2022-10-29T23:28:15.366Z,42.95
2022-10-29T23:30:41.907Z,44.13
2022-10-29T23:33:08.276Z,42.92
2022-10-29T23:35:34.609Z,42.50
2022-10-29T23:38:01.432Z,41.95
2022-10-29T23:40:27.784Z,43.17
2022-10-29T23:42:54.180Z,41.40
2022-10-29T23:45:20.571Z,42.75
2022-10-29T23:47:46.855Z,40.97
2022-10-29T23:50:13.196Z,40.63
2022-10-29T23:52:39.526Z,40.95
2022-10-29T23:55:05.806Z,39.42
2022-10-29T23:57:32.776Z,42.00
2022-10-29T23:59:59.094Z,39.97
